Time;durP1;ratioP1;P1;durP2;ratioP2;P2;SDS_P1;SDS_P2;PMS_P1;PMS_P2;Temp;Humidity;BMP_temperature;BMP_pressure;BME280_temperature;BME280_humidity;BME280_pressure;Samples;Min_cycle;Max_cycle;Signal;HPM_P1;HPM_P2
2022/11/11 00:00:26;;;;;;;6.43;3.40;;;;;;;12.43;53.57;101994.09;5043559;28;20158;-72
2022/11/11 00:02:56;;;;;;;8.50;3.47;;;;;;;12.43;52.43;101991.50;5041931;28;20490;-72
2022/11/11 00:05:26;;;;;;;5.20;3.25;;;;;;;12.38;54.77;101989.53;5030125;28;20046;-73
2022/11/11 00:07:58;;;;;;;7.45;2.97;;;;;;;12.30;58.19;101989.19;5031683;28;20057;-72
2022/11/11 00:10:27;;;;;;;4.55;3.20;;;;;;;12.29;58.71;101982.25;5031573;28;20088;-73
2022/11/11 00:12:58;;;;;;;6.85;3.67;;;;;;;12.25;53.51;101981.22;5028133;28;20053;-73
2022/11/11 00:15:29;;;;;;;7.30;3.50;;;;;;;12.27;53.75;101976.97;5028861;28;20060;-73
2022/11/11 00:26:15;;;;;;;5.90;3.33;;;;;;;12.08;55.78;101971.84;5025992;28;20461;-73
2022/11/11 00:28:44;;;;;;;5.28;3.85;;;;;;;11.98;57.18;101962.78;5037554;28;20045;-73
2022/11/11 00:31:16;;;;;;;7.13;4.03;;;;;;;11.91;54.73;101969.41;5027369;28;20049;-74
2022/11/11 00:33:44;;;;;;;7.63;4.07;;;;;;;11.83;54.90;101962.97;5030000;28;20095;-75
2022/11/11 00:36:12;;;;;;;6.78;3.72;;;;;;;11.74;54.21;101959.97;5033867;28;20053;-74
2022/11/11 00:38:48;;;;;;;8.35;3.33;;;;;;;11.66;54.77;101956.13;5033631;28;20057;-72
2022/11/11 00:41:18;;;;;;;7.00;3.65;;;;;;;11.59;55.21;101964.47;5029681;28;20049;-73
2022/11/11 00:43:47;;;;;;;8.07;4.18;;;;;;;11.48;54.28;101957.13;5029884;28;20050;-73
2022/11/11 00:51:49;;;;;;;10.45;4.20;;;;;;;11.16;55.30;101953.06;5034840;28;20065;-73
2022/11/11 00:54:17;;;;;;;7.30;3.55;;;;;;;11.08;56.58;101954.38;5025442;28;20647;-74
2022/11/11 00:56:46;;;;;;;5.88;3.25;;;;;;;10.97;56.19;101946.16;5032050;28;20040;-74
2022/11/11 00:59:14;;;;;;;7.35;3.78;;;;;;;10.88;57.01;101949.19;5039273;28;20275;-74
2022/11/11 01:01:45;;;;;;;5.32;3.30;;;;;;;10.78;58.08;101949.53;5034095;28;20041;-74
2022/11/11 01:04:14;;;;;;;6.55;3.95;;;;;;;10.68;59.05;101949.94;5041396;28;20053;-72
2022/11/11 01:06:42;;;;;;;6.32;3.40;;;;;;;10.56;61.09;101942.47;5045169;28;20049;-75
2022/11/11 01:09:11;;;;;;;8.43;3.50;;;;;;;10.45;60.64;101938.47;5050521;28;20049;-73
2022/11/11 01:11:40;;;;;;;6.22;3.78;;;;;;;10.35;62.05;101931.03;5042130;28;20045;-74
2022/11/11 01:14:16;;;;;;;5.68;3.58;;;;;;;10.26;61.53;101932.34;5044091;28;20049;-76
2022/11/11 01:16:46;;;;;;;9.60;3.75;;;;;;;10.19;61.82;101945.78;5042695;28;20049;-73
2022/11/11 01:19:15;;;;;;;9.27;4.90;;;;;;;10.12;61.92;101935.03;5045329;28;20043;-75
2022/11/11 01:21:43;;;;;;;8.25;4.10;;;;;;;10.02;63.01;101933.72;5046996;28;20041;-73
2022/11/11 01:24:12;;;;;;;7.35;4.80;;;;;;;9.93;62.92;101925.47;5041415;28;20049;-75
2022/11/11 01:26:41;;;;;;;8.68;3.72;;;;;;;9.83;63.97;101930.19;5046729;28;20061;-74
2022/11/11 01:29:09;;;;;;;9.55;3.95;;;;;;;9.77;64.03;101935.03;5039782;28;20051;-75
2022/11/11 01:31:38;;;;;;;11.60;3.97;;;;;;;9.70;65.59;101932.06;5051123;28;20242;-73
2022/11/11 01:34:08;;;;;;;6.68;4.18;;;;;;;9.63;66.74;101926.56;5046668;28;20053;-73
2022/11/11 01:36:39;;;;;;;5.85;4.05;;;;;;;9.56;67.52;101927.06;5048425;28;20139;-75
2022/11/11 01:39:08;;;;;;;9.85;3.80;;;;;;;9.50;67.64;101926.72;5048514;28;20144;-74
2022/11/11 01:41:37;;;;;;;7.60;4.78;;;;;;;9.40;68.63;101922.78;5047151;28;20051;-72
2022/11/11 01:44:40;;;;;;;7.43;4.60;;;;;;;9.33;69.39;101925.84;5048556;28;20059;-72
2022/11/11 01:47:09;;;;;;;8.40;4.43;;;;;;;9.26;69.40;101923.75;5045864;28;20044;-74
2022/11/11 01:49:47;;;;;;;11.77;4.70;;;;;;;9.15;69.75;101919.69;5052029;28;20041;-74
2022/11/11 01:52:22;;;;;;;15.00;4.45;;;;;;;9.02;70.20;101906.13;5052919;28;20273;-74
2022/11/11 01:54:57;;;;;;;8.07;4.13;;;;;;;9.02;70.29;101919.03;5045467;28;20406;-73
2022/11/11 01:57:32;;;;;;;10.50;5.07;;;;;;;8.95;71.88;101922.06;5047748;28;20053;-73
2022/11/11 02:00:05;;;;;;;6.65;4.47;;;;;;;8.90;72.45;101913.19;5046319;28;20053;-73
2022/11/11 02:02:39;;;;;;;12.18;5.18;;;;;;;8.84;73.61;101907.69;5046359;28;20055;-73
2022/11/11 02:07:59;;;;;;;8.38;5.15;;;;;;;8.72;73.31;101918.22;5028211;28;20053;-74
2022/11/11 02:10:31;;;;;;;7.82;5.10;;;;;;;8.66;74.02;101906.66;5029673;28;20099;-72
2022/11/11 02:15:53;;;;;;;8.80;5.80;;;;;;;8.54;74.41;101900.06;5019081;28;20072;-73
2022/11/11 02:18:22;;;;;;;12.02;5.55;;;;;;;8.48;75.33;101904.84;5036555;28;20075;-74
2022/11/11 02:20:53;;;;;;;12.02;5.88;;;;;;;8.38;76.04;101895.69;5028309;28;20057;-74
2022/11/11 02:23:29;;;;;;;13.57;5.68;;;;;;;8.37;76.46;101893.00;5028364;28;20059;-77
2022/11/11 02:26:03;;;;;;;9.43;6.15;;;;;;;8.30;77.28;101888.31;5031267;28;20476;-72
2022/11/11 02:28:35;;;;;;;9.77;5.50;;;;;;;8.24;78.13;101885.38;5027242;28;20508;-74
2022/11/11 02:31:04;;;;;;;9.18;5.50;;;;;;;8.18;79.54;101881.66;5031810;28;20057;-74
2022/11/11 02:33:33;;;;;;;11.02;5.45;;;;;;;8.12;79.36;101881.28;5035387;28;20047;-76
2022/11/11 02:36:04;;;;;;;13.27;6.43;;;;;;;8.08;81.20;101879.34;5029431;28;20051;-73
2022/11/11 02:38:33;;;;;;;10.20;4.55;;;;;;;7.99;82.78;101873.66;5031565;28;20499;-73
2022/11/11 02:43:49;;;;;;;12.50;6.13;;;;;;;8.00;82.83;101877.13;5035215;28;20064;-75
2022/11/11 02:46:17;;;;;;;10.20;5.90;;;;;;;7.96;84.07;101874.38;5040456;28;20520;-79
2022/11/11 02:48:46;;;;;;;16.05;7.15;;;;;;;7.90;84.26;101878.28;5032426;28;20095;-76
2022/11/11 02:51:15;;;;;;;11.20;6.75;;;;;;;7.86;84.98;101873.75;5044100;28;20513;-74
2022/11/11 02:53:43;;;;;;;13.88;6.10;;;;;;;7.79;86.20;101861.28;5035242;28;20038;-75
2022/11/11 02:57:05;;;;;;;13.68;6.55;;;;;;;7.79;86.21;101863.88;5033555;28;20049;-75
2022/11/11 02:59:03;;;;;;;10.77;6.28;;;;;;;7.80;85.51;101869.13;5034503;28;20049;-75
2022/11/11 03:01:32;;;;;;;12.23;5.82;;;;;;;7.78;85.37;101868.13;5031884;28;20045;-75
2022/11/11 03:04:03;;;;;;;10.13;6.53;;;;;;;7.75;85.58;101863.69;5038869;28;20053;-74
2022/11/11 03:06:32;;;;;;;9.80;5.63;;;;;;;7.76;86.32;101869.72;5048868;28;20044;-73
2022/11/11 03:09:00;;;;;;;10.10;6.15;;;;;;;7.74;85.50;101869.66;5047336;28;20045;-72
2022/11/11 03:11:31;;;;;;;18.75;8.57;;;;;;;7.75;84.32;101868.84;5044895;28;20631;-73
2022/11/11 03:14:03;;;;;;;20.60;8.55;;;;;;;7.73;84.39;101860.13;5045252;28;20049;-74
2022/11/11 03:19:17;;;;;;;14.63;7.57;;;;;;;7.50;84.00;101833.03;5047885;28;20137;-74
2022/11/11 03:21:49;;;;;;;15.10;7.68;;;;;;;7.65;84.70;101860.47;5046583;28;20151;-72
2022/11/11 03:24:17;;;;;;;15.77;8.50;;;;;;;7.62;84.64;101861.19;5046233;28;20051;-73
2022/11/11 03:26:48;;;;;;;15.55;8.13;;;;;;;7.57;84.28;101857.47;5045956;28;20052;-74
2022/11/11 03:29:16;;;;;;;22.50;7.30;;;;;;;7.54;84.75;101858.19;5046036;28;20057;-75
2022/11/11 03:31:45;;;;;;;18.30;8.82;;;;;;;7.51;84.76;101854.50;5046485;28;20048;-75
2022/11/11 03:34:20;;;;;;;18.00;7.70;;;;;;;7.48;85.34;101851.78;5045430;28;20060;-75
2022/11/11 03:39:34;;;;;;;14.40;7.53;;;;;;;7.39;84.88;101856.38;5049159;28;20410;-74
2022/11/11 03:42:04;;;;;;;15.70;7.88;;;;;;;7.33;85.07;101851.75;5058858;28;20053;-74
2022/11/11 03:44:33;;;;;;;15.30;8.05;;;;;;;7.30;85.68;101848.97;5054701;28;20568;-73
2022/11/11 03:47:02;;;;;;;12.10;7.60;;;;;;;7.26;85.78;101854.72;5053226;28;20044;-73
2022/11/11 03:49:30;;;;;;;11.85;6.82;;;;;;;7.20;85.71;101850.13;5049216;28;20552;-73
2022/11/11 03:51:59;;;;;;;18.77;7.45;;;;;;;7.18;86.19;101850.81;5048902;28;20590;-73
2022/11/11 03:54:28;;;;;;;15.05;7.85;;;;;;;7.13;86.97;101853.13;5045028;28;20041;-74
2022/11/11 03:57:29;;;;;;;15.20;7.80;;;;;;;7.08;86.95;101841.66;5050763;28;20045;-73
2022/11/11 03:59:48;;;;;;;18.75;8.77;;;;;;;7.04;86.47;101842.25;5049672;28;20040;-72
2022/11/11 04:10:31;;;;;;;19.48;8.65;;;;;;;6.80;90.42;101837.38;5031750;28;20047;-74
2022/11/11 04:26:49;;;;;;;17.55;8.85;;;;;;;6.53;90.87;101833.97;5027985;28;20118;-74
2022/11/11 04:29:29;;;;;;;19.10;9.13;;;;;;;6.43;90.81;101822.19;5032505;28;20049;-75
2022/11/11 04:34:48;;;;;;;17.27;8.25;;;;;;;6.34;91.46;101819.06;5026855;28;20118;-76
2022/11/11 04:37:17;;;;;;;15.75;8.68;;;;;;;6.28;92.59;101822.13;5027568;28;20055;-73
2022/11/11 04:42:34;;;;;;;18.27;7.90;;;;;;;6.22;91.94;101808.88;5021310;28;20605;-76
2022/11/11 04:47:58;;;;;;;28.38;9.70;;;;;;;6.17;91.66;101811.97;5025715;28;20104;-75
2022/11/11 04:50:29;;;;;;;19.10;9.57;;;;;;;6.08;91.37;101801.97;5027471;28;20049;-75
2022/11/11 04:52:57;;;;;;;26.50;11.82;;;;;;;6.11;91.61;101809.88;5021477;28;20053;-76
2022/11/11 04:58:12;;;;;;;16.95;7.70;;;;;;;6.07;92.01;101813.94;5026807;28;20418;-76
2022/11/11 05:00:41;;;;;;;16.02;7.60;;;;;;;6.03;91.81;101806.81;5023912;28;20057;-74
2022/11/11 05:03:16;;;;;;;26.45;7.90;;;;;;;5.99;91.81;101804.84;5028350;28;20038;-77
2022/11/11 05:11:36;;;;;;;16.20;7.00;;;;;;;5.90;92.43;101806.78;4961823;28;20050;-77
2022/11/11 05:22:28;;;;;;;11.07;6.68;;;;;;;5.81;93.24;101809.63;5046589;28;20269;-76
2022/11/11 05:27:42;;;;;;;11.30;6.57;;;;;;;5.78;94.46;101800.84;5045668;28;20071;-77
2022/11/11 05:30:14;;;;;;;12.38;6.35;;;;;;;5.78;94.97;101798.28;5043719;28;20052;-74
2022/11/11 05:32:43;;;;;;;14.85;6.72;;;;;;;5.75;94.78;101800.63;5042826;28;20056;-76
2022/11/11 05:35:14;;;;;;;13.25;6.55;;;;;;;5.72;94.75;101803.88;5051695;28;20045;-76
2022/11/11 05:37:43;;;;;;;10.27;5.82;;;;;;;5.71;94.41;101806.38;5049041;28;20069;-78
2022/11/11 05:40:13;;;;;;;13.63;7.47;;;;;;;5.66;94.48;101804.38;5054092;28;20057;-75
2022/11/11 05:42:45;;;;;;;16.27;7.45;;;;;;;5.63;95.07;101795.56;5050107;28;20047;-73
2022/11/11 05:45:13;;;;;;;15.27;7.57;;;;;;;5.61;95.38;101789.44;5049309;28;20114;-77
2022/11/11 05:47:42;;;;;;;15.52;6.95;;;;;;;5.60;95.22;101788.56;5047319;28;20186;-74
2022/11/11 05:50:13;;;;;;;14.30;6.30;;;;;;;5.56;95.38;101784.00;5045666;28;20142;-74
2022/11/11 05:52:49;;;;;;;14.93;6.70;;;;;;;5.53;95.18;101781.25;5047331;28;20037;-75
2022/11/11 05:55:18;;;;;;;15.00;6.97;;;;;;;5.50;95.54;101775.94;5047382;28;20053;-75
2022/11/11 05:57:46;;;;;;;17.00;8.13;;;;;;;5.46;95.68;101773.94;5048998;28;20231;-76
2022/11/11 06:00:16;;;;;;;11.98;6.57;;;;;;;5.43;96.04;101768.63;5049436;28;20049;-75
2022/11/11 06:02:45;;;;;;;22.17;8.13;;;;;;;5.39;96.19;101771.75;5048912;28;20037;-76
2022/11/11 06:05:15;;;;;;;11.73;6.57;;;;;;;5.38;95.72;101767.38;5043733;28;20103;-74
2022/11/11 06:07:44;;;;;;;12.15;6.63;;;;;;;5.28;95.76;101762.44;5046529;28;20128;-76
2022/11/11 06:10:31;;;;;;;14.30;6.78;;;;;;;5.22;97.64;101761.25;5043999;28;20053;-73
2022/11/11 06:13:04;;;;;;;12.55;7.32;;;;;;;5.15;97.63;101751.34;5045290;28;20417;-73
2022/11/11 06:15:33;;;;;;;12.00;6.40;;;;;;;5.18;97.51;101755.81;5042107;28;20049;-74
2022/11/11 06:18:02;;;;;;;13.07;6.82;;;;;;;5.12;96.94;101746.00;5042192;28;20071;-76
2022/11/11 06:20:36;;;;;;;16.63;6.88;;;;;;;5.11;96.94;101754.50;5047526;28;20056;-76
2022/11/11 06:23:05;;;;;;;15.25;6.60;;;;;;;5.09;97.42;101743.25;5047801;28;20052;-75
2022/11/11 06:28:21;;;;;;;13.65;6.90;;;;;;;5.03;96.05;101736.03;5049189;28;20076;-76
2022/11/11 06:30:49;;;;;;;10.55;6.60;;;;;;;5.04;95.97;101736.94;5047520;28;20047;-75
2022/11/11 06:33:18;;;;;;;12.85;6.70;;;;;;;5.00;96.00;101735.81;5046738;28;20072;-77
2022/11/11 06:35:50;;;;;;;16.45;7.30;;;;;;;5.01;96.67;101736.69;5047505;28;20044;-76
2022/11/11 06:38:19;;;;;;;15.60;6.95;;;;;;;4.99;96.13;101731.50;5048841;28;20049;-79
2022/11/11 06:40:48;;;;;;;13.10;7.03;;;;;;;4.98;96.56;101734.81;5052383;28;20044;-76
2022/11/11 06:43:17;;;;;;;16.92;6.95;;;;;;;4.96;97.05;101727.81;5060598;28;20103;-72
2022/11/11 06:45:46;;;;;;;13.40;6.22;;;;;;;4.93;97.57;101723.38;5046022;28;20084;-78
2022/11/11 06:48:15;;;;;;;15.65;6.25;;;;;;;4.94;97.40;101729.38;5043717;28;20059;-76
2022/11/11 06:50:44;;;;;;;13.15;7.30;;;;;;;4.92;96.77;101733.53;5048164;28;20041;-75
2022/11/11 06:53:15;;;;;;;13.80;7.00;;;;;;;4.89;97.88;101741.00;5046551;28;20049;-77
2022/11/11 06:55:44;;;;;;;17.30;6.55;;;;;;;4.87;97.62;101734.88;5052078;28;20092;-77
2022/11/11 06:58:15;;;;;;;13.07;6.10;;;;;;;4.85;98.32;101741.59;5051577;28;20045;-79
2022/11/11 07:00:46;;;;;;;10.73;5.97;;;;;;;4.78;98.55;101732.56;5046212;28;20049;-75
2022/11/11 07:03:16;;;;;;;14.68;7.03;;;;;;;4.78;98.98;101741.16;5044869;28;20117;-76
2022/11/11 07:05:45;;;;;;;12.32;6.50;;;;;;;4.75;99.53;101733.25;5045947;28;20045;-74
2022/11/11 07:08:17;;;;;;;9.52;5.68;;;;;;;4.74;99.97;101736.63;5045659;28;20201;-76
2022/11/11 07:10:51;;;;;;;12.32;6.70;;;;;;;4.72;100.00;101722.81;5048944;28;20044;-75
2022/11/11 07:13:20;;;;;;;9.77;5.82;;;;;;;4.72;100.00;101722.81;5046590;28;20058;-76
2022/11/11 07:15:49;;;;;;;9.43;6.15;;;;;;;4.70;100.00;101729.50;5047910;28;20072;-76
2022/11/11 07:18:18;;;;;;;12.32;5.95;;;;;;;4.70;100.00;101726.06;5043516;28;20045;-76
2022/11/11 07:20:55;;;;;;;9.70;5.35;;;;;;;4.68;100.00;101730.19;5048715;28;20047;-75
2022/11/11 07:23:26;;;;;;;13.38;6.15;;;;;;;4.66;100.00;101729.19;5046025;28;20078;-76
2022/11/11 07:25:54;;;;;;;10.50;5.72;;;;;;;4.64;99.61;101726.50;5043711;28;20042;-75
2022/11/11 07:28:23;;;;;;;12.35;6.45;;;;;;;4.61;99.47;101731.44;5044515;28;20048;-76
2022/11/11 07:30:54;;;;;;;10.32;5.80;;;;;;;4.55;100.00;101728.44;5043385;28;20098;-75
2022/11/11 07:33:23;;;;;;;13.80;6.03;;;;;;;4.59;99.91;101740.69;5044265;28;20057;-75
2022/11/11 07:35:51;;;;;;;11.65;4.53;;;;;;;4.56;100.00;101737.94;5046216;28;20053;-75
2022/11/11 07:38:20;;;;;;;11.20;6.20;;;;;;;4.54;100.00;101729.22;5047566;28;20076;-75
2022/11/11 07:40:50;;;;;;;8.30;4.28;;;;;;;4.48;100.00;101721.09;5046892;28;20041;-75
2022/11/11 07:43:19;;;;;;;14.10;5.45;;;;;;;4.48;100.00;101726.22;5044244;28;20041;-76
2022/11/11 07:45:47;;;;;;;11.95;5.68;;;;;;;4.46;99.85;101725.22;5049849;28;20044;-76
2022/11/11 07:48:16;;;;;;;10.70;5.13;;;;;;;4.35;100.00;101712.59;5050999;28;20051;-75
2022/11/11 07:50:45;;;;;;;8.07;4.82;;;;;;;4.39;100.00;101714.53;5048906;28;20057;-76
2022/11/11 07:53:14;;;;;;;7.68;4.10;;;;;;;4.37;100.00;101711.00;5052448;28;20063;-75
2022/11/11 07:55:42;;;;;;;9.88;4.88;;;;;;;4.37;100.00;101708.41;5049556;28;20064;-76
2022/11/11 07:58:13;;;;;;;8.43;4.25;;;;;;;4.37;100.00;101708.41;5050782;28;20521;-75
2022/11/11 08:00:41;;;;;;;9.32;4.70;;;;;;;4.34;100.00;101697.97;5042791;28;20041;-76
2022/11/11 08:03:10;;;;;;;8.00;4.50;;;;;;;4.32;100.00;101684.16;5041322;28;20045;-76
2022/11/11 08:05:47;;;;;;;7.72;4.35;;;;;;;4.38;100.00;101699.09;5047167;28;20052;-75
2022/11/11 08:08:16;;;;;;;7.45;4.10;;;;;;;4.37;100.00;101694.72;5045951;28;20139;-75
2022/11/11 08:10:45;;;;;;;13.05;4.53;;;;;;;4.37;100.00;101692.16;5047305;28;20044;-75
2022/11/11 08:16:02;;;;;;;9.13;4.47;;;;;;;4.35;99.55;101696.28;5047172;28;20052;-75
2022/11/11 08:18:31;;;;;;;9.15;5.00;;;;;;;4.31;98.63;101692.66;5045640;28;20087;-74
2022/11/11 08:21:02;;;;;;;7.85;4.05;;;;;;;4.29;98.89;101689.09;5046286;28;20049;-76
2022/11/11 08:23:34;;;;;;;15.10;5.65;;;;;;;4.27;99.00;101684.63;5050950;28;20063;-74
2022/11/11 08:26:03;;;;;;;9.40;5.07;;;;;;;4.24;99.63;101677.63;5045184;28;20629;-75
2022/11/11 08:28:35;;;;;;;9.05;4.78;;;;;;;4.25;99.50;101673.41;5047444;28;20079;-74
2022/11/11 08:31:06;;;;;;;10.35;4.63;;;;;;;4.26;99.84;101677.72;5047013;28;20056;-75
2022/11/11 08:33:35;;;;;;;6.60;4.53;;;;;;;4.24;100.00;101679.28;5046140;28;20052;-75
2022/11/11 08:36:06;;;;;;;7.25;4.22;;;;;;;4.24;100.00;101680.19;5046008;28;20071;-75
2022/11/11 08:38:35;;;;;;;13.35;4.75;;;;;;;4.21;100.00;101674.84;5043920;28;20048;-74
2022/11/11 08:41:09;;;;;;;8.43;4.80;;;;;;;4.24;100.00;101672.50;5048055;28;20510;-76
2022/11/11 08:43:40;;;;;;;10.60;5.35;;;;;;;4.27;100.00;101666.72;5049709;28;20487;-75
2022/11/11 08:46:10;;;;;;;11.82;5.80;;;;;;;4.28;100.00;101671.91;5046495;28;20590;-75
2022/11/11 08:48:39;;;;;;;6.90;3.95;;;;;;;4.29;100.00;101670.28;5042418;28;20049;-75
2022/11/11 08:51:07;;;;;;;10.90;4.40;;;;;;;4.29;100.00;101658.34;5048903;28;20469;-75
2022/11/11 08:53:36;;;;;;;8.88;3.90;;;;;;;4.24;100.00;101649.44;5046405;28;20053;-75
2022/11/11 08:56:05;;;;;;;9.50;4.45;;;;;;;4.30;100.00;101656.66;5050829;28;20041;-76
2022/11/11 08:58:34;;;;;;;10.82;4.90;;;;;;;4.27;100.00;101647.09;5048696;28;20057;-75
2022/11/11 09:01:04;;;;;;;11.68;4.53;;;;;;;4.30;100.00;101639.59;5048070;28;20077;-74
2022/11/11 09:03:35;;;;;;;9.93;4.28;;;;;;;4.33;100.00;101634.72;5050151;28;20049;-75
2022/11/11 09:06:04;;;;;;;8.23;5.00;;;;;;;4.35;100.00;101632.22;5054062;28;20049;-75
2022/11/11 09:08:32;;;;;;;9.15;4.55;;;;;;;4.33;100.00;101623.56;5044036;28;20052;-74
2022/11/11 09:11:01;;;;;;;9.52;4.97;;;;;;;4.33;100.00;101621.00;5044272;28;20060;-76
2022/11/11 09:13:33;;;;;;;9.70;4.75;;;;;;;4.33;100.00;101626.13;5042630;28;20048;-75
2022/11/11 09:16:03;;;;;;;11.85;4.20;;;;;;;4.29;100.00;101627.59;5042461;28;20049;-74
2022/11/11 09:18:32;;;;;;;9.27;4.50;;;;;;;4.25;100.00;101620.47;5042812;28;20048;-75
2022/11/11 09:21:01;;;;;;;11.82;5.20;;;;;;;4.25;100.00;101629.84;5043754;28;20041;-75
2022/11/11 09:23:29;;;;;;;7.95;4.93;;;;;;;4.23;100.00;101632.28;5045684;28;20107;-75
2022/11/11 09:26:02;;;;;;;11.38;4.80;;;;;;;4.22;100.00;101630.53;5046921;28;20128;-75
2022/11/11 09:28:32;;;;;;;9.25;4.75;;;;;;;4.18;100.00;101623.41;5049528;28;20107;-75
2022/11/11 09:31:03;;;;;;;9.00;4.95;;;;;;;4.21;100.00;101628.72;5046304;28;20142;-74
2022/11/11 09:33:32;;;;;;;7.30;4.50;;;;;;;4.14;100.00;101622.28;5045418;28;20044;-74
2022/11/11 09:36:02;;;;;;;6.53;4.10;;;;;;;4.09;100.00;101622.78;5044845;28;20609;-75
2022/11/11 09:38:31;;;;;;;9.13;4.30;;;;;;;4.08;100.00;101626.13;5045368;28;20049;-75
2022/11/11 09:41:13;;;;;;;18.33;4.55;;;;;;;4.06;100.00;101632.81;5041722;28;20048;-75
2022/11/11 09:43:55;;;;;;;9.10;4.00;;;;;;;4.05;100.00;101623.34;5047385;28;20037;-76
2022/11/11 09:46:43;;;;;;;10.67;4.83;;;;;;;4.09;100.00;101622.78;5042174;28;20059;-75
2022/11/11 09:49:33;;;;;;;6.50;3.72;;;;;;;4.12;100.00;101615.28;5042518;28;20128;-75
2022/11/11 09:52:11;;;;;;;7.97;4.22;;;;;;;4.09;100.00;101607.41;5048615;28;20059;-75
2022/11/11 09:54:55;;;;;;;6.90;3.80;;;;;;;4.07;100.00;101620.09;5049140;28;20059;-75
2022/11/11 09:57:33;;;;;;;7.43;4.15;;;;;;;4.05;100.00;101610.53;5047589;28;20135;-75
2022/11/11 10:00:06;;;;;;;8.25;4.55;;;;;;;4.04;100.00;101613.88;5047854;28;20041;-75
2022/11/11 10:02:42;;;;;;;14.30;4.45;;;;;;;4.02;100.00;101615.44;5044098;28;20052;-75
2022/11/11 10:05:16;;;;;;;9.38;4.65;;;;;;;4.07;100.00;101609.84;5050462;28;20057;-75
2022/11/11 10:07:56;;;;;;;10.50;4.43;;;;;;;4.08;100.00;101596.28;5048883;28;20927;-75
2022/11/11 10:10:39;;;;;;;7.82;4.18;;;;;;;4.16;100.00;101601.91;5050358;28;20060;-76
2022/11/11 10:13:17;;;;;;;7.27;4.43;;;;;;;4.19;100.00;101602.13;5049928;28;20044;-75
2022/11/11 10:15:58;;;;;;;7.65;4.85;;;;;;;4.23;100.00;101609.22;5046788;28;20425;-75
2022/11/11 10:18:43;;;;;;;6.20;3.75;;;;;;;4.28;100.00;101605.31;5049437;28;20057;-75
2022/11/11 10:21:16;;;;;;;7.68;4.13;;;;;;;4.29;100.00;101608.78;5050927;28;20164;-74
2022/11/11 10:23:49;;;;;;;7.28;4.53;;;;;;;4.32;100.00;101612.41;5050336;28;20041;-75
2022/11/11 10:26:20;;;;;;;6.30;3.83;;;;;;;4.32;100.00;101609.84;5045695;28;20048;-74
2022/11/11 10:28:53;;;;;;;7.38;4.20;;;;;;;4.33;100.00;101608.19;5049612;28;20059;-75
2022/11/11 10:31:23;;;;;;;;;;;;;;;4.37;100.00;101605.03;5046527;28;20045;-75
2022/11/11 10:34:00;;;;;;;12.75;4.65;;;;;;;4.38;100.00;101601.72;5047781;28;19929;-75
2022/11/11 10:36:31;;;;;;;7.35;4.72;;;;;;;4.41;100.00;101597.66;5046296;28;20056;-75
2022/11/11 10:39:02;;;;;;;9.38;4.20;;;;;;;4.43;100.00;101589.22;5047937;28;20132;-76
2022/11/11 10:41:37;;;;;;;8.73;4.78;;;;;;;4.40;100.00;101587.34;5051953;28;20140;-75
2022/11/11 10:44:20;;;;;;;6.95;4.00;;;;;;;4.32;100.00;101578.22;5050862;28;20056;-76
2022/11/11 10:47:02;;;;;;;8.63;4.03;;;;;;;4.31;100.00;101576.47;5050661;28;20454;-75
2022/11/11 10:49:41;;;;;;;9.63;4.30;;;;;;;4.28;100.00;101563.44;5059215;28;20060;-74
2022/11/11 10:52:13;;;;;;;10.27;5.50;;;;;;;4.29;100.00;101565.22;5052558;28;20055;-75
2022/11/11 10:54:48;;;;;;;12.10;4.32;;;;;;;4.28;100.00;101554.06;5051478;28;20064;-75
2022/11/11 10:57:22;;;;;;;9.82;5.32;;;;;;;4.30;100.00;101549.94;5052034;28;20041;-75
2022/11/11 10:59:58;;;;;;;10.10;3.72;;;;;;;4.29;100.00;101540.50;5058061;28;20047;-76
2022/11/11 11:02:31;;;;;;;6.20;4.07;;;;;;;4.30;100.00;101547.38;5050183;28;20041;-76
2022/11/11 11:05:07;;;;;;;6.68;3.92;;;;;;;4.36;100.00;101545.22;5048104;28;20057;-76
2022/11/11 11:07:42;;;;;;;10.13;4.25;;;;;;;4.36;100.00;101540.13;5061218;28;20052;-76
2022/11/11 11:10:15;;;;;;;10.93;5.30;;;;;;;4.40;100.00;101534.41;5050669;28;20500;-76
2022/11/11 11:12:51;;;;;;;5.68;3.40;;;;;;;4.39;100.00;101522.38;5045129;28;20045;-76
2022/11/11 11:15:23;;;;;;;5.50;3.90;;;;;;;4.44;100.00;101535.50;5050423;28;20071;-76
2022/11/11 11:17:58;;;;;;;13.50;5.10;;;;;;;4.46;100.00;101527.91;5051068;28;20137;-76
2022/11/11 11:20:28;;;;;;;9.02;4.50;;;;;;;4.45;100.00;101521.03;5056507;28;20041;-76
2022/11/11 11:23:00;;;;;;;7.93;4.50;;;;;;;4.51;100.00;101529.09;5050027;28;20083;-76
2022/11/11 11:25:30;;;;;;;7.10;4.13;;;;;;;4.52;100.00;101521.53;5049647;28;20508;-76
2022/11/11 11:28:08;;;;;;;7.90;4.20;;;;;;;4.55;100.00;101518.28;5049423;28;20135;-76
2022/11/11 11:30:37;;;;;;;7.78;4.25;;;;;;;4.56;100.00;101510.69;5049691;28;20052;-77
2022/11/11 11:33:07;;;;;;;7.28;3.78;;;;;;;4.59;100.00;101502.31;5044451;28;20156;-75
2022/11/11 11:35:39;;;;;;;12.25;4.60;;;;;;;4.57;100.00;101494.50;5046946;28;20139;-75
2022/11/11 11:38:09;;;;;;;8.60;5.13;;;;;;;4.56;100.00;101500.44;5046176;28;20061;-76
2022/11/11 11:40:50;;;;;;;10.30;5.38;;;;;;;4.57;100.00;101486.81;5047585;28;20523;-75
2022/11/11 11:43:39;;;;;;;8.32;4.03;;;;;;;4.59;100.00;101489.50;5051699;28;20055;-76
2022/11/11 11:46:19;;;;;;;9.55;4.43;;;;;;;4.60;100.00;101481.00;5047700;28;20045;-76
2022/11/11 11:49:04;;;;;;;9.63;3.90;;;;;;;4.59;100.00;101484.38;5048645;28;20430;-76
2022/11/11 11:51:42;;;;;;;9.15;4.68;;;;;;;4.58;100.00;101472.31;5048969;28;20111;-76
2022/11/11 11:54:34;;;;;;;5.93;3.50;;;;;;;4.60;100.00;101483.56;5046552;28;20056;-76
2022/11/11 11:57:11;;;;;;;8.68;5.13;;;;;;;4.64;100.00;101477.84;5049809;28;20056;-76
2022/11/11 11:59:44;;;;;;;9.13;4.53;;;;;;;4.64;100.00;101482.09;5045938;28;20138;-76
2022/11/11 12:02:35;;;;;;;9.57;4.30;;;;;;;4.66;100.00;101480.53;5046916;28;20198;-76
2022/11/11 12:05:11;;;;;;;8.75;4.28;;;;;;;4.65;100.00;101484.78;5051620;28;20049;-76
2022/11/11 12:08:16;;;;;;;9.45;4.43;;;;;;;4.64;100.00;101493.25;5049724;28;20526;-75
2022/11/11 12:10:50;;;;;;;5.57;4.05;;;;;;;4.62;100.00;101505.06;5048585;28;20049;-73
2022/11/11 12:13:37;;;;;;;6.45;3.38;;;;;;;4.55;100.00;101508.00;5048781;28;20048;-74
2022/11/11 12:16:25;;;;;;;7.53;4.22;;;;;;;4.48;100.00;101508.41;5050313;28;20337;-74
2022/11/11 12:19:14;;;;;;;8.88;4.32;;;;;;;4.39;100.00;101486.50;5051873;28;20552;-75
2022/11/11 12:21:58;;;;;;;8.05;4.05;;;;;;;4.38;100.00;101487.31;5046000;28;20056;-75
2022/11/11 12:24:46;;;;;;;8.73;3.75;;;;;;;4.37;100.00;101482.06;5045457;28;20111;-74
2022/11/11 12:27:22;;;;;;;6.60;4.03;;;;;;;4.36;100.00;101476.06;5043454;28;20049;-74
2022/11/11 12:30:04;;;;;;;12.00;3.70;;;;;;;4.38;100.00;101474.50;5044983;28;20053;-75
2022/11/11 12:33:06;;;;;;;9.25;4.18;;;;;;;4.37;100.00;101493.19;5046295;28;20124;-75
2022/11/11 12:35:55;;;;;;;8.20;4.40;;;;;;;4.40;100.00;101483.16;4975881;28;20069;-76
2022/11/11 12:38:58;;;;;;;8.60;4.53;;;;;;;4.40;100.00;101467.78;5043037;28;20500;-74
2022/11/11 12:41:43;;;;;;;11.38;5.72;;;;;;;4.42;100.00;101465.31;5039638;28;20045;-75
2022/11/11 12:44:18;;;;;;;10.55;4.68;;;;;;;4.45;100.00;101468.09;5050073;28;20051;-74
2022/11/11 12:46:59;;;;;;;6.95;4.30;;;;;;;4.47;100.00;101465.63;5049389;28;20526;-73
2022/11/11 12:49:44;;;;;;;7.20;3.67;;;;;;;4.47;100.00;101457.94;5045690;28;20103;-73
2022/11/11 12:52:26;;;;;;;14.65;4.95;;;;;;;4.43;100.00;101455.97;5044534;28;20132;-74
2022/11/11 12:55:10;;;;;;;10.85;3.95;;;;;;;4.42;100.00;101449.94;5044874;28;20045;-74
2022/11/11 12:57:59;;;;;;;7.00;4.60;;;;;;;4.40;100.00;101452.41;5050839;28;20072;-74
2022/11/11 13:00:28;;;;;;;10.52;4.35;;;;;;;4.40;100.00;101452.41;5046202;28;20056;-74
2022/11/11 13:03:17;;;;;;;7.07;4.38;;;;;;;4.38;100.00;101448.88;5047073;28;20048;-74
2022/11/11 13:05:52;;;;;;;5.20;3.67;;;;;;;4.33;100.00;101447.69;5027750;28;20042;-75
2022/11/11 13:08:42;;;;;;;8.63;4.82;;;;;;;4.26;100.00;101442.03;5025201;28;20060;-75
2022/11/11 13:11:19;;;;;;;7.80;4.43;;;;;;;4.22;100.00;101448.66;5025633;28;20069;-74
2022/11/11 13:14:04;;;;;;;6.90;4.50;;;;;;;4.23;100.00;101445.28;5026152;28;20055;-74